Time;durP1;ratioP1;P1;durP2;ratioP2;P2;SDS_P1;SDS_P2;PMS_P1;PMS_P2;Temp;Humidity;BMP_temperature;BMP_pressure;BME280_temperature;BME280_humidity;BME280_pressure;Samples;Min_cycle;Max_cycle;Signal;HPM_P1;HPM_P2
2023/10/31 00:01:13;;;;;;;1.63;0.90;;;12.40;99.90;;;;;;5014554;28;20041;-71
2023/10/31 00:03:40;;;;;;;1.90;0.90;;;12.30;99.90;;;;;;5014316;28;20030;-71
2023/10/31 00:06:06;;;;;;;3.35;0.60;;;12.30;99.90;;;;;;5013488;28;20026;-71
2023/10/31 00:08:31;;;;;;;2.03;0.60;;;12.30;99.90;;;;;;5013341;28;20582;-70
2023/10/31 00:10:57;;;;;;;1.53;0.70;;;12.20;99.90;;;;;;5012068;28;20507;-71
2023/10/31 00:13:22;;;;;;;1.10;0.63;;;12.10;99.90;;;;;;5013350;28;20292;-71
2023/10/31 00:15:48;;;;;;;1.27;0.67;;;12.00;99.90;;;;;;5013196;28;20365;-70
2023/10/31 00:18:13;;;;;;;2.17;0.87;;;12.00;99.90;;;;;;5013597;28;20026;-70
2023/10/31 00:20:39;;;;;;;2.40;1.20;;;11.90;99.90;;;;;;5013290;28;20018;-69
2023/10/31 00:23:04;;;;;;;2.17;0.70;;;12.00;99.90;;;;;;5011847;28;20018;-70
2023/10/31 00:25:30;;;;;;;2.93;0.80;;;12.00;99.90;;;;;;5012942;28;20053;-70
2023/10/31 00:27:55;;;;;;;2.57;0.70;;;12.00;99.90;;;;;;5013073;28;20030;-69
2023/10/31 00:30:21;;;;;;;1.67;0.80;;;11.90;99.90;;;;;;5013577;28;20041;-69
2023/10/31 00:32:46;;;;;;;1.23;0.60;;;12.00;99.90;;;;;;5012991;28;20393;-70
2023/10/31 00:35:12;;;;;;;2.47;0.60;;;12.00;99.90;;;;;;5012916;28;20034;-70
2023/10/31 00:37:39;;;;;;;2.93;0.67;;;12.00;99.90;;;;;;5012707;28;20034;-71
2023/10/31 00:40:06;;;;;;;1.98;0.57;;;11.90;99.90;;;;;;5011706;28;20105;-70
2023/10/31 00:42:32;;;;;;;3.53;0.70;;;11.90;99.90;;;;;;5012725;28;20030;-70
2023/10/31 00:44:57;;;;;;;2.53;0.83;;;11.90;99.90;;;;;;5012814;28;20084;-70
2023/10/31 00:47:23;;;;;;;1.83;0.60;;;11.90;99.90;;;;;;5012843;28;20111;-70
2023/10/31 00:49:48;;;;;;;1.60;0.40;;;11.90;99.90;;;;;;5011476;28;20022;-70
2023/10/31 00:52:14;;;;;;;2.83;0.50;;;11.80;99.90;;;;;;5011813;28;20030;-70
2023/10/31 00:54:39;;;;;;;1.47;0.50;;;11.80;99.90;;;;;;5012895;28;20029;-70
2023/10/31 00:57:05;;;;;;;2.07;0.53;;;11.80;99.90;;;;;;5013028;28;20135;-71
2023/10/31 00:59:30;;;;;;;3.70;0.80;;;11.80;99.90;;;;;;5015145;28;20496;-70
2023/10/31 01:01:56;;;;;;;1.80;0.60;;;11.80;99.90;;;;;;5016634;28;20397;-70
2023/10/31 01:04:21;;;;;;;4.30;0.80;;;11.90;99.90;;;;;;5017146;28;20025;-70
2023/10/31 01:06:47;;;;;;;2.63;0.50;;;11.90;99.90;;;;;;5015051;28;20099;-70
2023/10/31 01:09:13;;;;;;;2.10;0.60;;;11.80;99.90;;;;;;5016890;28;20101;-70
2023/10/31 01:11:39;;;;;;;1.60;0.50;;;11.90;99.90;;;;;;5016422;28;20034;-70
2023/10/31 01:14:04;;;;;;;1.65;0.95;;;11.90;99.90;;;;;;5016893;28;20025;-70
2023/10/31 01:16:30;;;;;;;2.23;0.50;;;11.90;99.90;;;;;;5016665;28;20145;-70
2023/10/31 01:18:55;;;;;;;1.40;0.55;;;12.00;99.90;;;;;;5016486;28;20388;-71
2023/10/31 01:21:21;;;;;;;5.37;0.80;;;11.90;99.90;;;;;;5016257;28;20042;-71
2023/10/31 01:23:46;;;;;;;0.80;0.33;;;11.80;99.90;;;;;;5016519;28;20030;-70
2023/10/31 01:26:12;;;;;;;1.67;0.77;;;11.80;99.90;;;;;;5016406;28;20272;-69
2023/10/31 01:28:37;;;;;;;4.03;0.50;;;11.90;99.90;;;;;;5016237;28;20029;-69
2023/10/31 01:31:03;;;;;;;1.70;0.80;;;11.80;99.90;;;;;;5016065;28;20034;-70
2023/10/31 01:33:28;;;;;;;2.03;1.10;;;11.80;99.90;;;;;;5016090;28;20036;-70
2023/10/31 01:35:54;;;;;;;2.90;0.60;;;11.90;99.90;;;;;;5016440;28;20022;-71
2023/10/31 01:38:19;;;;;;;2.83;1.13;;;11.90;99.90;;;;;;5016073;28;20026;-70
2023/10/31 01:40:50;;;;;;;2.37;0.60;;;11.80;99.90;;;;;;5016289;28;20018;-70
2023/10/31 01:43:36;;;;;;;2.08;0.50;;;12.00;99.90;;;;;;5016221;28;20480;-69
2023/10/31 01:46:02;;;;;;;2.83;0.88;;;11.80;99.90;;;;;;5015884;28;20022;-69
2023/10/31 01:48:30;;;;;;;0.73;0.35;;;11.90;99.90;;;;;;5015895;28;20022;-70
2023/10/31 01:51:01;;;;;;;3.30;0.65;;;11.80;99.90;;;;;;5015943;28;20476;-69
2023/10/31 01:53:28;;;;;;;1.85;0.47;;;11.70;99.90;;;;;;5015784;28;20065;-69
2023/10/31 01:55:55;;;;;;;3.55;0.88;;;11.60;99.90;;;;;;5015524;28;20030;-69
2023/10/31 01:58:28;;;;;;;1.33;0.65;;;11.60;99.90;;;;;;5015672;28;20105;-69
2023/10/31 02:00:55;;;;;;;1.00;0.50;;;11.50;99.90;;;;;;5015912;28;20088;-70
2023/10/31 02:03:21;;;;;;;1.98;0.57;;;11.60;99.90;;;;;;5014425;28;20029;-70
2023/10/31 02:05:46;;;;;;;3.17;0.52;;;11.50;99.90;;;;;;5014484;28;20118;-70
2023/10/31 02:08:12;;;;;;;2.55;0.82;;;11.50;99.90;;;;;;5015380;28;20480;-70
2023/10/31 02:10:37;;;;;;;0.73;0.40;;;11.40;99.90;;;;;;5013869;28;20396;-69
2023/10/31 02:13:13;;;;;;;4.07;0.50;;;11.40;99.90;;;;;;5014001;28;20437;-69
2023/10/31 02:15:39;;;;;;;1.23;0.50;;;11.50;99.90;;;;;;5015266;28;20366;-69
2023/10/31 02:18:05;;;;;;;3.17;0.75;;;11.40;99.90;;;;;;5015070;28;20022;-71
2023/10/31 02:20:30;;;;;;;3.50;0.50;;;11.40;99.90;;;;;;5015965;28;20040;-70
2023/10/31 02:22:56;;;;;;;2.10;0.60;;;11.40;99.90;;;;;;5015246;28;20022;-69
2023/10/31 02:25:21;;;;;;;1.77;0.47;;;11.30;99.90;;;;;;5015257;28;20033;-70
2023/10/31 02:27:47;;;;;;;1.07;0.63;;;11.30;99.90;;;;;;5014815;28;20026;-69
2023/10/31 02:30:14;;;;;;;1.70;0.60;;;11.30;99.90;;;;;;5015037;28;20076;-69
2023/10/31 02:32:40;;;;;;;1.35;0.52;;;11.40;99.90;;;;;;5015088;28;20034;-70
2023/10/31 02:35:06;;;;;;;1.02;0.52;;;11.40;99.90;;;;;;5014831;28;20392;-70
2023/10/31 02:37:31;;;;;;;;;;;11.50;99.90;;;;;;5015040;28;20033;-70
2023/10/31 02:39:58;;;;;;;2.20;0.60;;;11.50;99.90;;;;;;5014816;28;19909;-69
2023/10/31 02:42:24;;;;;;;1.35;0.50;;;11.50;99.90;;;;;;5014595;28;20041;-69
2023/10/31 02:44:49;;;;;;;2.13;0.60;;;11.40;99.90;;;;;;5014748;28;20029;-70
2023/10/31 02:47:15;;;;;;;2.43;0.63;;;11.50;99.90;;;;;;5014702;28;20111;-70
2023/10/31 02:49:40;;;;;;;2.22;0.50;;;11.80;99.90;;;;;;5014870;28;20475;-70
2023/10/31 02:52:06;;;;;;;2.20;0.60;;;11.90;99.90;;;;;;5013285;28;20026;-70
2023/10/31 02:54:31;;;;;;;2.90;0.70;;;11.80;99.90;;;;;;5014794;28;20047;-70
2023/10/31 02:56:59;;;;;;;1.67;0.40;;;11.90;99.90;;;;;;5014007;28;20033;-70
2023/10/31 02:59:24;;;;;;;2.25;0.52;;;11.80;99.90;;;;;;5014561;28;20025;-70
2023/10/31 03:01:50;;;;;;;1.50;0.60;;;11.90;99.90;;;;;;5013261;28;20022;-70
2023/10/31 03:04:15;;;;;;;2.08;0.63;;;11.80;99.90;;;;;;5014837;28;20477;-70
2023/10/31 03:06:41;;;;;;;3.63;0.60;;;11.80;99.90;;;;;;5014630;28;20037;-70
2023/10/31 03:09:07;;;;;;;6.32;0.73;;;11.90;99.90;;;;;;5014403;28;20030;-70
2023/10/31 03:11:33;;;;;;;4.60;0.63;;;11.90;99.90;;;;;;5014225;28;20034;-70
2023/10/31 03:13:59;;;;;;;1.57;0.60;;;11.90;99.90;;;;;;5014318;28;20485;-70
2023/10/31 03:16:25;;;;;;;0.88;0.40;;;12.00;99.90;;;;;;5014428;28;20097;-70
2023/10/31 03:18:50;;;;;;;2.63;0.70;;;12.00;99.90;;;;;;5014092;28;20311;-70
2023/10/31 03:21:17;;;;;;;0.85;0.32;;;11.90;99.90;;;;;;5013735;28;20030;-70
2023/10/31 03:23:46;;;;;;;2.47;0.60;;;11.90;99.90;;;;;;5014042;28;20091;-70
2023/10/31 03:26:11;;;;;;;1.38;0.55;;;11.90;99.90;;;;;;5013597;28;20029;-70
2023/10/31 03:28:37;;;;;;;4.70;0.43;;;12.00;99.90;;;;;;5012828;28;20117;-70
2023/10/31 03:31:02;;;;;;;2.73;0.97;;;11.90;99.90;;;;;;5013880;28;20097;-70
2023/10/31 03:33:28;;;;;;;1.15;0.47;;;12.00;99.90;;;;;;5012548;28;20572;-70
2023/10/31 03:35:53;;;;;;;2.57;0.57;;;11.90;99.90;;;;;;5013792;28;20029;-70
2023/10/31 03:38:19;;;;;;;1.63;0.50;;;11.90;99.90;;;;;;5013567;28;20040;-70
2023/10/31 03:40:44;;;;;;;2.97;0.53;;;11.90;99.90;;;;;;5014055;28;20106;-70
2023/10/31 03:43:10;;;;;;;1.67;0.50;;;11.90;99.90;;;;;;5012181;28;20393;-69
2023/10/31 03:45:35;;;;;;;2.53;0.70;;;11.90;99.90;;;;;;5014031;28;20388;-69
2023/10/31 03:48:01;;;;;;;2.30;0.60;;;11.90;99.90;;;;;;5012499;28;20117;-69
2023/10/31 03:50:26;;;;;;;2.23;0.50;;;11.90;99.90;;;;;;5014007;28;20113;-69
2023/10/31 03:52:52;;;;;;;2.40;0.50;;;11.90;99.90;;;;;;5013228;28;20061;-69
2023/10/31 03:55:18;;;;;;;7.47;1.60;;;12.00;99.90;;;;;;5013481;28;20285;-69
2023/10/31 03:57:44;;;;;;;;;;;11.90;99.90;;;;;;5013896;28;20033;-69
2023/10/31 04:00:11;;;;;;;1.83;0.50;;;12.00;99.90;;;;;;5013494;28;19905;-69
2023/10/31 04:02:37;;;;;;;2.45;0.50;;;11.90;99.90;;;;;;5013372;28;20021;-69
2023/10/31 04:05:02;;;;;;;1.92;0.60;;;12.00;99.90;;;;;;5013702;28;20076;-69
2023/10/31 04:07:28;;;;;;;3.95;0.50;;;11.90;99.90;;;;;;5013215;28;20069;-70
2023/10/31 04:09:54;;;;;;;1.03;0.40;;;12.00;99.90;;;;;;5013426;28;20028;-70
2023/10/31 04:12:20;;;;;;;6.90;0.55;;;11.80;99.90;;;;;;5011873;28;20026;-70
2023/10/31 04:14:45;;;;;;;1.48;0.73;;;11.90;99.90;;;;;;5012120;28;20076;-69
2023/10/31 04:17:11;;;;;;;1.73;0.60;;;11.80;99.90;;;;;;5011948;28;20026;-70
2023/10/31 04:19:37;;;;;;;4.23;0.60;;;11.80;99.90;;;;;;5011978;28;20072;-69
2023/10/31 04:22:02;;;;;;;4.90;0.88;;;11.80;99.90;;;;;;5011835;28;20046;-69
2023/10/31 04:24:28;;;;;;;2.67;0.60;;;11.90;99.90;;;;;;5011883;28;20030;-68
2023/10/31 04:26:53;;;;;;;2.80;0.60;;;11.90;99.90;;;;;;5011633;28;20469;-70
2023/10/31 04:29:19;;;;;;;1.00;0.50;;;11.90;99.90;;;;;;5012030;28;20022;-69
2023/10/31 04:31:45;;;;;;;2.70;0.53;;;11.90;99.90;;;;;;5013143;28;20631;-69
2023/10/31 04:34:10;;;;;;;1.87;0.70;;;11.90;99.90;;;;;;5013717;28;20507;-69
2023/10/31 04:36:36;;;;;;;2.05;0.93;;;11.80;99.90;;;;;;5016921;28;20401;-69
2023/10/31 04:39:02;;;;;;;3.97;0.83;;;11.80;99.90;;;;;;5017402;28;20030;-69
2023/10/31 04:41:28;;;;;;;1.48;0.68;;;11.80;99.90;;;;;;5017029;28;20541;-70
2023/10/31 04:43:53;;;;;;;1.58;0.60;;;11.70;99.90;;;;;;5015839;28;20029;-70
2023/10/31 04:46:19;;;;;;;0.90;0.53;;;11.90;99.90;;;;;;5015499;28;20026;-70
2023/10/31 04:48:44;;;;;;;3.37;1.73;;;12.10;99.90;;;;;;5015772;28;20025;-69
2023/10/31 04:51:10;;;;;;;2.57;0.63;;;12.00;99.90;;;;;;5016912;28;20088;-69
2023/10/31 04:53:35;;;;;;;2.27;0.60;;;11.90;99.90;;;;;;5017326;28;20033;-69
2023/10/31 04:56:01;;;;;;;2.43;0.60;;;12.00;99.90;;;;;;5017080;28;20109;-69
2023/10/31 04:58:26;;;;;;;1.50;0.50;;;12.00;99.90;;;;;;5016726;28;20022;-69
2023/10/31 05:00:52;;;;;;;1.87;0.80;;;12.00;99.90;;;;;;5016932;28;20022;-70
2023/10/31 05:03:17;;;;;;;1.37;0.47;;;11.90;99.90;;;;;;5015259;28;20067;-70
2023/10/31 05:05:44;;;;;;;4.13;0.57;;;12.00;99.90;;;;;;5031847;28;20026;-70
2023/10/31 05:08:09;;;;;;;;;;;11.80;99.90;;;;;;5016837;28;20093;-70
2023/10/31 05:10:35;;;;;;;2.60;0.60;;;11.80;99.90;;;;;;5016546;28;19905;-70
2023/10/31 05:13:02;;;;;;;3.87;0.60;;;11.80;99.90;;;;;;5016160;28;20034;-70
2023/10/31 05:15:27;;;;;;;1.55;0.40;;;11.80;99.90;;;;;;5016345;28;20504;-69
2023/10/31 05:17:53;;;;;;;3.20;0.80;;;11.80;99.90;;;;;;5016280;28;20053;-69
2023/10/31 05:20:20;;;;;;;2.23;1.03;;;11.80;99.90;;;;;;5016808;28;20034;-69
2023/10/31 05:22:45;;;;;;;3.42;0.70;;;11.80;99.90;;;;;;5010705;28;20482;-69
2023/10/31 05:25:11;;;;;;;3.73;1.50;;;11.70;99.90;;;;;;4996925;28;20048;-69
2023/10/31 05:27:36;;;;;;;1.53;0.50;;;11.70;99.90;;;;;;4996504;28;20436;-69
2023/10/31 05:30:03;;;;;;;2.10;0.67;;;11.60;99.90;;;;;;4995569;28;20030;-69
2023/10/31 05:32:29;;;;;;;2.75;0.70;;;11.40;99.90;;;;;;4996691;28;20483;-69
2023/10/31 05:34:54;;;;;;;3.45;0.63;;;11.40;99.90;;;;;;4996495;28;20106;-69
2023/10/31 05:37:20;;;;;;;1.27;0.50;;;11.30;99.90;;;;;;4995140;28;20062;-68
2023/10/31 05:39:45;;;;;;;5.63;0.77;;;11.30;99.90;;;;;;4996802;28;20030;-69
2023/10/31 05:42:11;;;;;;;4.17;0.90;;;11.30;99.90;;;;;;4996214;28;20030;-68
2023/10/31 05:44:36;;;;;;;3.83;0.50;;;11.30;99.90;;;;;;4996513;28;20041;-69
2023/10/31 05:47:02;;;;;;;2.53;0.70;;;11.30;99.90;;;;;;4995149;28;20071;-69
2023/10/31 05:49:27;;;;;;;2.67;0.70;;;11.30;99.90;;;;;;4996442;28;20045;-69
2023/10/31 05:51:53;;;;;;;2.80;0.60;;;11.30;99.90;;;;;;5013645;28;20117;-69
2023/10/31 05:54:19;;;;;;;1.60;0.50;;;11.40;99.90;;;;;;5014305;28;20103;-69
2023/10/31 05:56:45;;;;;;;0.93;0.50;;;11.30;99.90;;;;;;5015611;28;20030;-69
2023/10/31 05:59:11;;;;;;;1.70;0.50;;;11.30;99.90;;;;;;5014488;28;20025;-69
2023/10/31 06:01:36;;;;;;;1.23;0.63;;;11.40;99.90;;;;;;5030701;28;20086;-68
2023/10/31 06:04:02;;;;;;;2.03;0.90;;;11.40;99.90;;;;;;5015204;28;20065;-68
2023/10/31 06:06:29;;;;;;;2.78;0.60;;;11.40;99.90;;;;;;5015354;28;20029;-68
2023/10/31 06:08:54;;;;;;;1.48;0.60;;;11.40;99.90;;;;;;5016018;28;20109;-69
2023/10/31 06:11:20;;;;;;;2.87;0.83;;;11.40;99.90;;;;;;5016263;28;20049;-68
2023/10/31 06:13:47;;;;;;;3.40;0.90;;;11.40;99.90;;;;;;5016514;28;20049;-69
2023/10/31 06:16:13;;;;;;;3.35;0.90;;;11.40;99.90;;;;;;5014441;28;20389;-68
2023/10/31 06:18:40;;;;;;;2.80;0.50;;;11.40;99.90;;;;;;5015969;28;20026;-68
2023/10/31 06:21:06;;;;;;;3.22;1.27;;;11.50;99.90;;;;;;5015380;28;20075;-69
2023/10/31 06:23:31;;;;;;;3.38;0.85;;;11.50;99.90;;;;;;5015961;28;20026;-69
2023/10/31 06:25:57;;;;;;;2.90;1.00;;;11.50;99.90;;;;;;5015705;28;20030;-69
2023/10/31 06:28:23;;;;;;;3.93;0.80;;;11.50;99.90;;;;;;5015052;28;20026;-69
2023/10/31 06:30:49;;;;;;;2.17;0.60;;;11.50;99.90;;;;;;5018801;28;20477;-69
2023/10/31 06:33:14;;;;;;;3.03;1.17;;;11.50;99.90;;;;;;5018221;28;20026;-69
2023/10/31 06:35:40;;;;;;;5.87;0.90;;;11.50;99.90;;;;;;5014726;28;20022;-70
2023/10/31 06:38:06;;;;;;;2.50;0.83;;;11.50;99.90;;;;;;5013769;28;20061;-70
2023/10/31 06:40:31;;;;;;;5.25;1.20;;;11.50;99.90;;;;;;5013905;28;20022;-70
2023/10/31 06:42:57;;;;;;;5.30;0.88;;;11.50;99.90;;;;;;5014888;28;20096;-68
2023/10/31 06:45:22;;;;;;;3.40;0.80;;;11.60;99.90;;;;;;5015388;28;20034;-69
2023/10/31 06:47:48;;;;;;;2.57;1.20;;;11.60;99.90;;;;;;5014775;28;20033;-69
2023/10/31 06:50:13;;;;;;;2.13;0.90;;;11.60;99.90;;;;;;5014852;28;20044;-69
2023/10/31 06:52:39;;;;;;;4.63;1.00;;;11.50;99.90;;;;;;5014936;28;20030;-69
2023/10/31 06:55:05;;;;;;;1.53;0.90;;;11.50;99.90;;;;;;5015052;28;20515;-69
2023/10/31 06:57:30;;;;;;;1.88;0.90;;;11.50;99.90;;;;;;5014144;28;20595;-70
2023/10/31 06:59:56;;;;;;;3.60;0.90;;;11.50;99.90;;;;;;5015075;28;20330;-69
2023/10/31 07:02:21;;;;;;;4.00;1.30;;;11.50;99.90;;;;;;5014471;28;20392;-69
2023/10/31 07:04:47;;;;;;;3.15;0.90;;;11.50;99.90;;;;;;5014143;28;20045;-70
2023/10/31 07:07:12;;;;;;;3.50;1.00;;;11.50;99.90;;;;;;5014744;28;20503;-69
2023/10/31 07:09:38;;;;;;;3.77;1.20;;;11.50;99.90;;;;;;5012882;28;20030;-69
2023/10/31 07:12:04;;;;;;;4.53;1.10;;;11.60;99.90;;;;;;5012981;28;20029;-69
2023/10/31 07:14:29;;;;;;;3.22;0.82;;;11.70;99.90;;;;;;5014108;28;20030;-69
2023/10/31 07:16:56;;;;;;;3.43;1.00;;;11.70;99.90;;;;;;5013813;28;20093;-68
2023/10/31 07:19:22;;;;;;;3.72;0.93;;;11.70;99.90;;;;;;5012506;28;20025;-69
2023/10/31 07:21:47;;;;;;;4.33;2.17;;;11.70;99.90;;;;;;5013686;28;20547;-69
2023/10/31 07:24:13;;;;;;;2.50;1.30;;;11.80;99.90;;;;;;5012366;28;20026;-70
2023/10/31 07:26:38;;;;;;;5.87;2.03;;;11.80;99.90;;;;;;5013607;28;20026;-69
2023/10/31 07:29:04;;;;;;;3.57;1.47;;;11.70;99.90;;;;;;5013792;28;20389;-69
2023/10/31 07:31:29;;;;;;;3.57;0.90;;;11.70;99.90;;;;;;5013693;28;20034;-69
2023/10/31 07:33:56;;;;;;;3.17;1.20;;;11.80;99.90;;;;;;5013601;28;20030;-69
2023/10/31 07:36:21;;;;;;;4.28;1.05;;;11.70;99.90;;;;;;5013448;28;20269;-69
2023/10/31 07:38:47;;;;;;;2.47;1.20;;;11.80;99.90;;;;;;5013904;28;20036;-69
2023/10/31 07:41:13;;;;;;;1.30;0.80;;;11.80;99.90;;;;;;5012853;28;20026;-69
2023/10/31 07:43:38;;;;;;;5.07;1.60;;;11.90;99.90;;;;;;5011981;28;20389;-69
2023/10/31 07:46:04;;;;;;;3.80;1.03;;;11.90;99.90;;;;;;5013231;28;20026;-69
2023/10/31 07:48:30;;;;;;;4.32;1.45;;;11.90;99.90;;;;;;5012714;28;20484;-69
2023/10/31 07:50:55;;;;;;;3.90;1.63;;;11.90;99.90;;;;;;5013623;28;20034;-69
2023/10/31 07:53:21;;;;;;;5.70;1.40;;;12.00;99.90;;;;;;5013710;28;20036;-69
2023/10/31 07:55:46;;;;;;;7.70;1.30;;;12.10;99.90;;;;;;5013368;28;20440;-67
2023/10/31 07:58:12;;;;;;;5.70;1.50;;;12.20;99.90;;;;;;5012882;28;20488;-67
2023/10/31 08:00:39;;;;;;;5.93;1.08;;;12.20;99.90;;;;;;5013437;28;20024;-67
2023/10/31 08:03:05;;;;;;;5.30;0.90;;;12.30;99.90;;;;;;5013341;28;20084;-67
2023/10/31 08:05:30;;;;;;;2.05;0.70;;;12.40;99.90;;;;;;5029114;28;20096;-67
2023/10/31 08:07:56;;;;;;;2.87;0.60;;;12.50;99.90;;;;;;5012985;28;20038;-66
2023/10/31 08:10:21;;;;;;;7.30;1.10;;;12.60;99.90;;;;;;5013302;28;20030;-67
2023/10/31 08:12:47;;;;;;;5.73;1.03;;;12.60;99.90;;;;;;5013136;28;20536;-67
2023/10/31 08:15:13;;;;;;;3.13;1.17;;;12.70;99.90;;;;;;5012884;28;20057;-66
2023/10/31 08:17:39;;;;;;;5.20;1.13;;;12.70;99.90;;;;;;5012827;28;20041;-66
2023/10/31 08:20:05;;;;;;;3.40;1.33;;;12.60;99.90;;;;;;5012771;28;20030;-66
2023/10/31 08:22:30;;;;;;;5.25;1.38;;;12.70;99.90;;;;;;5012959;28;20018;-66
2023/10/31 08:24:56;;;;;;;4.43;1.30;;;12.80;99.90;;;;;;5012034;28;20040;-67
2023/10/31 08:27:22;;;;;;;2.63;1.03;;;12.80;99.90;;;;;;5012678;28;20038;-66
2023/10/31 08:29:47;;;;;;;4.70;1.17;;;12.80;99.90;;;;;;5013320;28;20038;-66
2023/10/31 08:32:13;;;;;;;3.47;0.98;;;12.80;99.90;;;;;;5012933;28;20041;-67
2023/10/31 08:34:38;;;;;;;2.37;0.93;;;12.90;99.90;;;;;;5013012;28;20038;-66
2023/10/31 08:37:04;;;;;;;2.57;0.93;;;12.90;99.90;;;;;;5012825;28;20121;-66
2023/10/31 08:39:30;;;;;;;3.90;0.90;;;13.00;99.90;;;;;;5012932;28;20374;-67
2023/10/31 08:41:57;;;;;;;;;;;13.00;99.90;;;;;;5013348;28;20028;-68
2023/10/31 08:44:22;;;;;;;4.38;0.93;;;13.10;99.90;;;;;;5013041;28;19910;-67
2023/10/31 08:46:48;;;;;;;3.67;0.80;;;13.30;99.90;;;;;;5013393;28;20037;-67
2023/10/31 08:49:17;;;;;;;3.65;0.80;;;13.40;99.90;;;;;;5013397;28;20265;-65
2023/10/31 08:51:44;;;;;;;4.22;1.20;;;13.50;99.90;;;;;;5012941;28;20029;-72
2023/10/31 08:54:11;;;;;;;3.95;1.20;;;13.60;99.90;;;;;;5012762;28;20037;-65
2023/10/31 08:56:36;;;;;;;3.30;1.05;;;13.70;99.90;;;;;;5012789;28;20018;-63
2023/10/31 08:59:02;;;;;;;6.30;1.20;;;13.70;99.90;;;;;;5012418;28;20033;-64
2023/10/31 09:01:31;;;;;;;3.93;1.17;;;13.70;99.90;;;;;;5012532;28;20026;-64
2023/10/31 09:05:55;;;;;;;5.82;1.10;;;13.50;99.90;;;;;;5111383;27;20310;-65
2023/10/31 09:08:21;;;;;;;6.83;1.73;;;13.50;99.90;;;;;;5110536;28;20099;-64
2023/10/31 09:10:46;;;;;;;6.80;1.60;;;13.50;99.90;;;;;;5110516;28;20099;-64
2023/10/31 09:13:13;;;;;;;2.47;0.83;;;13.50;99.90;;;;;;5109094;28;20484;-65
2023/10/31 09:15:38;;;;;;;6.13;1.40;;;13.80;99.90;;;;;;5113999;28;20028;-65
2023/10/31 09:18:04;;;;;;;3.67;1.20;;;13.80;99.90;;;;;;5118084;28;20444;-64
2023/10/31 09:20:30;;;;;;;8.13;1.30;;;13.80;99.90;;;;;;5110948;28;20067;-64
2023/10/31 09:22:56;;;;;;;7.27;1.70;;;13.80;99.90;;;;;;5110625;28;20266;-64
2023/10/31 09:25:21;;;;;;;3.45;1.17;;;13.80;99.90;;;;;;5110475;28;20031;-64
2023/10/31 09:27:47;;;;;;;4.53;1.30;;;13.90;99.90;;;;;;5109873;28;20072;-64
2023/10/31 09:30:12;;;;;;;5.07;1.30;;;14.00;99.90;;;;;;5110158;28;20023;-67
2023/10/31 09:32:38;;;;;;;4.00;1.00;;;14.20;99.90;;;;;;5110691;28;20355;-64
2023/10/31 09:35:04;;;;;;;4.77;1.03;;;14.20;99.90;;;;;;5110076;28;20270;-65
2023/10/31 09:37:29;;;;;;;4.20;1.20;;;14.20;99.90;;;;;;5110066;28;20107;-65
2023/10/31 09:39:55;;;;;;;7.53;1.07;;;14.20;99.90;;;;;;5108348;28;20122;-66
2023/10/31 09:42:20;;;;;;;9.53;1.97;;;14.30;99.90;;;;;;5109588;28;20104;-65
2023/10/31 09:44:46;;;;;;;7.57;1.20;;;14.30;99.90;;;;;;5109764;28;20390;-65
2023/10/31 09:47:12;;;;;;;6.23;1.13;;;14.20;99.90;;;;;;5109815;28;20490;-65
2023/10/31 09:49:37;;;;;;;6.72;2.38;;;14.30;99.90;;;;;;5109729;28;20036;-65
2023/10/31 09:52:03;;;;;;;3.27;1.30;;;14.20;99.90;;;;;;5109884;28;20497;-65
2023/10/31 09:54:29;;;;;;;6.22;2.35;;;14.20;99.90;;;;;;5110452;28;20095;-65
2023/10/31 09:56:55;;;;;;;6.55;1.52;;;14.20;99.90;;;;;;5110142;28;20051;-65
2023/10/31 09:59:20;;;;;;;2.60;1.20;;;14.10;99.90;;;;;;5109578;28;20051;-64
2023/10/31 10:01:46;;;;;;;6.00;1.88;;;14.10;99.90;;;;;;5109314;28;20050;-65
2023/10/31 10:04:12;;;;;;;6.80;1.70;;;14.20;99.90;;;;;;5109196;28;20135;-66
2023/10/31 10:07:02;;;;;;;4.32;1.70;;;14.50;99.90;;;;;;5108196;28;20035;-65
2023/10/31 10:09:29;;;;;;;5.60;2.47;;;14.70;99.90;;;;;;5109773;28;20024;-63
2023/10/31 10:11:56;;;;;;;6.25;1.85;;;14.80;99.90;;;;;;5110268;28;20046;-64
2023/10/31 10:14:24;;;;;;;4.10;1.17;;;14.80;99.90;;;;;;5109872;28;20031;-65
2023/10/31 10:16:50;;;;;;;6.20;1.83;;;14.50;99.90;;;;;;5098644;28;20163;-64
2023/10/31 10:19:19;;;;;;;5.88;1.60;;;14.40;99.90;;;;;;5096512;28;20144;-65
2023/10/31 10:21:52;;;;;;;5.88;1.35;;;14.20;99.90;;;;;;5096757;28;20097;-64
2023/10/31 10:24:20;;;;;;;5.18;1.90;;;13.90;99.90;;;;;;5096776;28;20032;-66
2023/10/31 10:26:46;;;;;;;6.03;1.33;;;13.80;99.90;;;;;;5095552;28;20419;-64
2023/10/31 10:29:11;;;;;;;4.38;1.35;;;13.70;99.90;;;;;;5094855;28;20028;-64
2023/10/31 10:31:37;;;;;;;3.55;1.20;;;13.60;99.90;;;;;;5095494;28;20031;-65
2023/10/31 10:34:06;;;;;;;5.87;1.80;;;13.50;99.90;;;;;;5095463;28;20034;-65
2023/10/31 10:36:33;;;;;;;6.43;1.70;;;13.40;99.90;;;;;;5094504;28;20323;-65
2023/10/31 10:38:59;;;;;;;9.65;1.95;;;13.40;99.90;;;;;;5095492;28;20119;-65
2023/10/31 10:41:28;;;;;;;6.97;1.30;;;13.40;99.90;;;;;;5095370;28;20103;-64
2023/10/31 10:44:13;;;;;;;3.80;0.93;;;13.50;99.90;;;;;;5094935;28;20033;-64
2023/10/31 10:46:40;;;;;;;8.30;2.13;;;13.50;99.90;;;;;;5095456;28;20111;-65
2023/10/31 10:49:06;;;;;;;;;;;13.60;99.90;;;;;;5095869;28;20024;-66
2023/10/31 10:52:01;;;;;;;7.93;1.88;;;13.60;99.90;;;;;;5094351;28;20397;-66
2023/10/31 10:54:30;;;;;;;2.95;1.25;;;13.50;99.90;;;;;;5094638;28;20508;-64
2023/10/31 10:57:06;;;;;;;4.35;1.70;;;13.60;99.90;;;;;;5094656;28;20023;-64
2023/10/31 10:59:49;;;;;;;4.25;1.00;;;13.60;99.90;;;;;;5094559;28;20040;-67
2023/10/31 11:02:15;;;;;;;5.80;1.88;;;13.60;99.90;;;;;;5095246;28;20428;-66
2023/10/31 11:04:42;;;;;;;3.17;1.17;;;13.50;99.90;;;;;;5090839;28;20020;-66
2023/10/31 11:07:09;;;;;;;3.30;1.25;;;13.60;99.90;;;;;;5089919;28;20032;-65
2023/10/31 11:09:35;;;;;;;4.95;1.45;;;13.60;99.90;;;;;;5089841;28;20610;-66
2023/10/31 11:12:02;;;;;;;5.43;1.30;;;13.60;99.90;;;;;;5095101;28;20017;-65
2023/10/31 11:14:30;;;;;;;6.32;1.25;;;13.60;99.90;;;;;;5096629;28;20508;-67
2023/10/31 11:16:59;;;;;;;5.63;1.40;;;13.70;99.90;;;;;;5099091;28;20039;-65
2023/10/31 11:19:27;;;;;;;12.25;2.25;;;13.90;99.90;;;;;;5093404;28;20371;-66
2023/10/31 11:22:00;;;;;;;7.25;1.85;;;14.00;99.90;;;;;;5088406;28;20012;-66
2023/10/31 11:24:32;;;;;;;6.75;1.92;;;14.10;99.90;;;;;;5074061;28;20479;-66
2023/10/31 11:27:02;;;;;;;5.22;1.83;;;14.20;99.90;;;;;;5074204;28;20099;-66
2023/10/31 11:29:27;;;;;;;4.63;2.30;;;14.20;99.90;;;;;;5092612;28;20022;-66
2023/10/31 11:31:56;;;;;;;7.47;2.47;;;14.20;99.90;;;;;;5094646;28;20020;-66
2023/10/31 11:34:22;;;;;;;5.63;2.70;;;14.10;99.90;;;;;;5094645;28;20028;-66
2023/10/31 11:36:50;;;;;;;6.00;2.50;;;14.10;99.90;;;;;;5094490;28;20043;-66
2023/10/31 11:39:28;;;;;;;5.32;1.77;;;14.20;99.90;;;;;;5094049;28;20028;-66
2023/10/31 11:41:55;;;;;;;5.25;1.70;;;14.30;99.90;;;;;;5094347;28;20086;-67
2023/10/31 11:44:25;;;;;;;;;;;14.40;99.90;;;;;;5094375;28;20035;-65
2023/10/31 11:46:52;;;;;;;7.15;2.30;;;14.30;99.90;;;;;;5074021;28;19904;-67
2023/10/31 11:49:50;;;;;;;7.13;1.95;;;14.20;99.90;;;;;;5074424;28;20028;-65
2023/10/31 11:52:19;;;;;;;6.85;2.08;;;14.00;99.90;;;;;;5052128;28;20047;-66
2023/10/31 11:54:44;;;;;;;5.63;2.05;;;13.90;99.90;;;;;;5051592;28;20097;-67
2023/10/31 11:57:10;;;;;;;5.20;1.70;;;14.00;99.90;;;;;;5051852;28;20037;-66
2023/10/31 11:59:39;;;;;;;6.85;1.85;;;14.10;99.90;;;;;;5051308;28;20025;-65
2023/10/31 12:02:15;;;;;;;4.90;2.10;;;14.10;99.90;;;;;;5051357;28;20036;-66
2023/10/31 12:04:41;;;;;;;10.70;1.90;;;14.20;99.90;;;;;;5051058;28;20113;-65
2023/10/31 12:07:06;;;;;;;7.47;2.00;;;14.30;99.90;;;;;;5051269;28;20431;-65
2023/10/31 12:09:32;;;;;;;8.53;1.90;;;14.40;99.90;;;;;;5051841;28;20029;-66
2023/10/31 12:11:57;;;;;;;6.55;2.28;;;14.40;99.90;;;;;;5051330;28;20053;-65
2023/10/31 12:14:23;;;;;;;4.50;1.83;;;14.40;99.90;;;;;;5051018;28;20118;-64
2023/10/31 12:16:48;;;;;;;11.33;2.03;;;14.50;99.90;;;;;;5034443;28;20037;-62
2023/10/31 12:19:14;;;;;;;6.50;1.98;;;14.50;99.90;;;;;;5051585;28;20520;-65
2023/10/31 12:21:46;;;;;;;9.50;1.90;;;14.40;99.90;;;;;;5067851;28;20032;-65
2023/10/31 12:24:14;;;;;;;4.15;1.27;;;14.30;99.90;;;;;;5071573;28;20020;-65
2023/10/31 12:26:40;;;;;;;3.95;1.80;;;14.20;99.90;;;;;;5071137;28;20051;-64
2023/10/31 12:29:10;;;;;;;;;;;14.10;99.90;;;;;;5073153;28;20483;-64
2023/10/31 12:31:39;;;;;;;3.10;1.17;;;14.00;99.90;;;;;;5073859;28;19927;-64
2023/10/31 12:34:05;;;;;;;7.25;1.67;;;14.00;99.90;;;;;;5073095;28;20092;-64
2023/10/31 12:36:31;;;;;;;;;;;14.00;99.90;;;;;;5113985;28;20020;-64
2023/10/31 12:38:57;;;;;;;4.00;1.60;;;14.00;99.90;;;;;;5114341;28;20297;-64
2023/10/31 12:41:22;;;;;;;4.47;2.00;;;14.20;99.90;;;;;;5113320;28;20088;-64
2023/10/31 12:43:48;;;;;;;12.52;6.63;;;14.40;99.90;;;;;;5113285;28;20031;-64
2023/10/31 12:46:31;;;;;;;4.63;1.55;;;14.40;99.90;;;;;;5113454;28;20023;-64